sensor_id;sensor_type;location;lat;lon;timestamp;pressure;altitude;pressure_sealevel;temperature;humidity
24746;BME280;12845;52.042;6.838;2023-09-08T00:01:48;-18598.03;;;21.25;100.00
24746;BME280;12845;52.042;6.838;2023-09-08T00:04:13;-18595.97;;;21.17;100.00
24746;BME280;12845;52.042;6.838;2023-09-08T00:06:40;-18595.31;;;21.14;100.00
24746;BME280;12845;52.042;6.838;2023-09-08T00:09:06;-18594.91;;;21.13;100.00
24746;BME280;12845;52.042;6.838;2023-09-08T00:11:32;-18593.81;;;21.09;100.00
24746;BME280;12845;52.042;6.838;2023-09-08T00:13:57;-18591.50;;;21.00;100.00
24746;BME280;12845;52.042;6.838;2023-09-08T00:16:22;-18592.72;;;21.05;100.00
24746;BME280;12845;52.042;6.838;2023-09-08T00:18:48;-18591.91;;;21.02;100.00
24746;BME280;12845;52.042;6.838;2023-09-08T00:21:13;-18592.19;;;21.03;100.00
24746;BME280;12845;52.042;6.838;2023-09-08T00:23:38;-18589.47;;;20.92;100.00
24746;BME280;12845;52.042;6.838;2023-09-08T00:26:04;-18587.00;;;20.83;100.00
24746;BME280;12845;52.042;6.838;2023-09-08T00:28:29;-18586.88;;;20.83;100.00
24746;BME280;12845;52.042;6.838;2023-09-08T00:30:54;-18585.78;;;20.79;100.00
24746;BME280;12845;52.042;6.838;2023-09-08T00:33:20;-18582.66;;;20.67;100.00
24746;BME280;12845;52.042;6.838;2023-09-08T00:35:50;-18584.56;;;20.74;100.00
24746;BME280;12845;52.042;6.838;2023-09-08T00:38:16;-18581.56;;;20.63;100.00
24746;BME280;12845;52.042;6.838;2023-09-08T00:40:41;-18582.78;;;20.67;100.00
24746;BME280;12845;52.042;6.838;2023-09-08T00:43:07;-18582.53;;;20.66;100.00
24746;BME280;12845;52.042;6.838;2023-09-08T00:45:37;-18586.19;;;20.80;100.00
24746;BME280;12845;52.042;6.838;2023-09-08T00:48:04;-18580.88;;;20.60;100.00
24746;BME280;12845;52.042;6.838;2023-09-08T00:50:29;-18582.94;;;20.68;100.00
24746;BME280;12845;52.042;6.838;2023-09-08T00:52:55;-18581.16;;;20.61;100.00
24746;BME280;12845;52.042;6.838;2023-09-08T00:55:20;-18577.88;;;20.49;100.00
24746;BME280;12845;52.042;6.838;2023-09-08T00:57:45;-18573.53;;;20.33;100.00
24746;BME280;12845;52.042;6.838;2023-09-08T01:00:11;-18572.72;;;20.29;100.00
24746;BME280;12845;52.042;6.838;2023-09-08T01:02:37;-18573.66;;;20.33;100.00
24746;BME280;12845;52.042;6.838;2023-09-08T01:05:02;-18575.31;;;20.39;100.00
24746;BME280;12845;52.042;6.838;2023-09-08T01:07:30;-18575.31;;;20.39;100.00
24746;BME280;12845;52.042;6.838;2023-09-08T01:09:56;-18572.16;;;20.27;100.00
24746;BME280;12845;52.042;6.838;2023-09-08T01:12:22;-18570.94;;;20.23;100.00
24746;BME280;12845;52.042;6.838;2023-09-08T01:14:47;-18569.72;;;20.18;100.00
24746;BME280;12845;52.042;6.838;2023-09-08T01:17:12;-18567.13;;;20.09;100.00
24746;BME280;12845;52.042;6.838;2023-09-08T01:19:38;-18566.31;;;20.05;100.00
24746;BME280;12845;52.042;6.838;2023-09-08T01:22:26;-18564.16;;;19.97;100.00
24746;BME280;12845;52.042;6.838;2023-09-08T01:27:48;-18566.03;;;20.04;100.00
24746;BME280;12845;52.042;6.838;2023-09-08T01:30:15;-18563.31;;;19.94;100.00
24746;BME280;12845;52.042;6.838;2023-09-08T01:32:41;-18561.00;;;19.86;100.00
24746;BME280;12845;52.042;6.838;2023-09-08T01:35:07;-18558.16;;;19.75;100.00
24746;BME280;12845;52.042;6.838;2023-09-08T01:37:33;-18558.28;;;19.75;100.00
24746;BME280;12845;52.042;6.838;2023-09-08T01:39:59;-18559.25;;;19.79;100.00
24746;BME280;12845;52.042;6.838;2023-09-08T01:42:24;-18560.34;;;19.83;100.00
24746;BME280;12845;52.042;6.838;2023-09-08T01:44:49;-18557.34;;;19.72;100.00
24746;BME280;12845;52.042;6.838;2023-09-08T01:47:16;-18559.91;;;19.81;100.00
24746;BME280;12845;52.042;6.838;2023-09-08T01:49:41;-18560.88;;;19.85;100.00
24746;BME280;12845;52.042;6.838;2023-09-08T01:52:06;-18558.28;;;19.75;100.00
24746;BME280;12845;52.042;6.838;2023-09-08T01:54:32;-18556.53;;;19.69;100.00
24746;BME280;12845;52.042;6.838;2023-09-08T01:56:57;-18555.97;;;19.67;100.00
24746;BME280;12845;52.042;6.838;2023-09-08T01:59:23;-18557.75;;;19.73;100.00
24746;BME280;12845;52.042;6.838;2023-09-08T02:01:48;-18550.25;;;19.45;100.00
24746;BME280;12845;52.042;6.838;2023-09-08T02:04:13;-18552.03;;;19.52;100.00
24746;BME280;12845;52.042;6.838;2023-09-08T02:06:39;-18554.75;;;19.62;100.00
24746;BME280;12845;52.042;6.838;2023-09-08T02:09:04;-18553.25;;;19.56;100.00
24746;BME280;12845;52.042;6.838;2023-09-08T02:11:29;-18547.53;;;19.35;100.00
24746;BME280;12845;52.042;6.838;2023-09-08T02:13:55;-18553.50;;;19.57;100.00
24746;BME280;12845;52.042;6.838;2023-09-08T02:16:20;-18552.97;;;19.55;100.00
24746;BME280;12845;52.042;6.838;2023-09-08T02:18:45;-18557.47;;;19.72;100.00
24746;BME280;12845;52.042;6.838;2023-09-08T02:21:11;-18555.97;;;19.67;100.00
24746;BME280;12845;52.042;6.838;2023-09-08T02:23:37;-18559.50;;;19.80;100.00
24746;BME280;12845;52.042;6.838;2023-09-08T02:26:02;-18549.84;;;19.44;100.00
24746;BME280;12845;52.042;6.838;2023-09-08T02:28:28;-18550.53;;;19.46;100.00
24746;BME280;12845;52.042;6.838;2023-09-08T02:30:54;-18551.06;;;19.48;100.00
24746;BME280;12845;52.042;6.838;2023-09-08T02:33:19;-18553.50;;;19.57;100.00
24746;BME280;12845;52.042;6.838;2023-09-08T02:35:44;-18554.19;;;19.60;100.00
24746;BME280;12845;52.042;6.838;2023-09-08T02:38:10;-18556.25;;;19.68;100.00
24746;BME280;12845;52.042;6.838;2023-09-08T02:40:35;-18553.78;;;19.58;100.00
24746;BME280;12845;52.042;6.838;2023-09-08T02:43:02;-18554.59;;;19.61;100.00
24746;BME280;12845;52.042;6.838;2023-09-08T02:45:27;-18555.00;;;19.63;100.00
24746;BME280;12845;52.042;6.838;2023-09-08T02:47:53;-18555.28;;;19.64;100.00
24746;BME280;12845;52.042;6.838;2023-09-08T02:50:18;-18556.38;;;19.68;100.00
24746;BME280;12845;52.042;6.838;2023-09-08T02:52:44;-18557.88;;;19.74;100.00
24746;BME280;12845;52.042;6.838;2023-09-08T02:55:09;-18557.06;;;19.71;100.00
24746;BME280;12845;52.042;6.838;2023-09-08T02:57:35;-18558.28;;;19.75;100.00
24746;BME280;12845;52.042;6.838;2023-09-08T03:00:00;-18558.00;;;19.74;100.00
24746;BME280;12845;52.042;6.838;2023-09-08T03:02:25;-18558.84;;;19.77;100.00
24746;BME280;12845;52.042;6.838;2023-09-08T03:04:51;-18558.97;;;19.78;100.00
24746;BME280;12845;52.042;6.838;2023-09-08T03:07:17;-18557.88;;;19.74;100.00
24746;BME280;12845;52.042;6.838;2023-09-08T03:09:43;-18564.97;;;20.00;100.00
24746;BME280;12845;52.042;6.838;2023-09-08T03:12:08;-18562.22;;;19.90;100.00
24746;BME280;12845;52.042;6.838;2023-09-08T03:14:33;-18563.06;;;19.93;100.00
24746;BME280;12845;52.042;6.838;2023-09-08T03:16:59;-18565.09;;;20.01;100.00
24746;BME280;12845;52.042;6.838;2023-09-08T03:19:24;-18567.00;;;20.08;100.00
24746;BME280;12845;52.042;6.838;2023-09-08T03:21:50;-18568.09;;;20.12;100.00
24746;BME280;12845;52.042;6.838;2023-09-08T03:24:15;-18569.59;;;20.18;100.00
24746;BME280;12845;52.042;6.838;2023-09-08T03:26:40;-18570.81;;;20.22;100.00
24746;BME280;12845;52.042;6.838;2023-09-08T03:29:06;-18565.78;;;20.03;100.00
24746;BME280;12845;52.042;6.838;2023-09-08T03:31:32;-18564.97;;;20.00;100.00
24746;BME280;12845;52.042;6.838;2023-09-08T03:33:57;-18568.22;;;20.13;100.00
24746;BME280;12845;52.042;6.838;2023-09-08T03:36:22;-18560.59;;;19.84;100.00
24746;BME280;12845;52.042;6.838;2023-09-08T03:38:48;-18562.78;;;19.92;100.00
24746;BME280;12845;52.042;6.838;2023-09-08T03:41:14;-18561.97;;;19.89;100.00
24746;BME280;12845;52.042;6.838;2023-09-08T03:43:39;-18562.91;;;19.93;100.00
24746;BME280;12845;52.042;6.838;2023-09-08T03:46:05;-18559.78;;;19.81;100.00
24746;BME280;12845;52.042;6.838;2023-09-08T03:48:30;-18559.66;;;19.80;100.00
24746;BME280;12845;52.042;6.838;2023-09-08T03:50:55;-18560.06;;;19.82;100.00
24746;BME280;12845;52.042;6.838;2023-09-08T03:53:21;-18561.56;;;19.88;100.00
24746;BME280;12845;52.042;6.838;2023-09-08T03:55:46;-18563.59;;;19.95;100.00
24746;BME280;12845;52.042;6.838;2023-09-08T03:58:12;-18563.31;;;19.94;100.00
24746;BME280;12845;52.042;6.838;2023-09-08T04:00:37;-18561.16;;;19.86;100.00
24746;BME280;12845;52.042;6.838;2023-09-08T04:03:03;-18560.88;;;19.85;100.00
24746;BME280;12845;52.042;6.838;2023-09-08T04:05:28;-18563.31;;;19.94;100.00
24746;BME280;12845;52.042;6.838;2023-09-08T04:07:54;-18560.34;;;19.83;100.00
24746;BME280;12845;52.042;6.838;2023-09-08T04:10:19;-18562.38;;;19.91;100.00
24746;BME280;12845;52.042;6.838;2023-09-08T04:12:44;-18554.75;;;19.62;100.00
24746;BME280;12845;52.042;6.838;2023-09-08T04:15:10;-18555.69;;;19.66;100.00
24746;BME280;12845;52.042;6.838;2023-09-08T04:17:36;-18554.59;;;19.61;100.00
24746;BME280;12845;52.042;6.838;2023-09-08T04:20:03;-18554.34;;;19.60;100.00
24746;BME280;12845;52.042;6.838;2023-09-08T04:22:30;-18553.50;;;19.57;100.00
24746;BME280;12845;52.042;6.838;2023-09-08T04:24:56;-18556.53;;;19.69;100.00
24746;BME280;12845;52.042;6.838;2023-09-08T04:27:22;-18555.69;;;19.66;100.00
24746;BME280;12845;52.042;6.838;2023-09-08T04:29:48;-18555.97;;;19.67;100.00
24746;BME280;12845;52.042;6.838;2023-09-08T04:32:13;-18552.44;;;19.53;100.00
24746;BME280;12845;52.042;6.838;2023-09-08T04:34:40;-18552.28;;;19.53;100.00
24746;BME280;12845;52.042;6.838;2023-09-08T04:37:05;-18550.09;;;19.45;100.00
24746;BME280;12845;52.042;6.838;2023-09-08T04:39:32;-18549.28;;;19.42;100.00
24746;BME280;12845;52.042;6.838;2023-09-08T04:41:57;-18551.06;;;19.48;100.00
24746;BME280;12845;52.042;6.838;2023-09-08T04:44:23;-18548.75;;;19.39;100.00
24746;BME280;12845;52.042;6.838;2023-09-08T04:46:48;-18548.34;;;19.38;100.00
24746;BME280;12845;52.042;6.838;2023-09-08T04:49:13;-18547.53;;;19.35;100.00
24746;BME280;12845;52.042;6.838;2023-09-08T04:51:39;-18545.88;;;19.29;100.00
24746;BME280;12845;52.042;6.838;2023-09-08T04:54:04;-18545.63;;;19.28;100.00
24746;BME280;12845;52.042;6.838;2023-09-08T04:56:30;-18544.78;;;19.25;100.00
24746;BME280;12845;52.042;6.838;2023-09-08T04:58:55;-18548.88;;;19.40;100.00
24746;BME280;12845;52.042;6.838;2023-09-08T05:01:21;-18547.94;;;19.36;100.00
24746;BME280;12845;52.042;6.838;2023-09-08T05:03:46;-18544.94;;;19.25;100.00
24746;BME280;12845;52.042;6.838;2023-09-08T05:06:12;-18542.34;;;19.15;100.00
24746;BME280;12845;52.042;6.838;2023-09-08T05:08:39;-18542.06;;;19.14;100.00
24746;BME280;12845;52.042;6.838;2023-09-08T05:11:04;-18540.44;;;19.08;100.00
24746;BME280;12845;52.042;6.838;2023-09-08T05:13:30;-18538.41;;;19.01;100.00
24746;BME280;12845;52.042;6.838;2023-09-08T05:15:55;-18536.91;;;18.95;100.00
24746;BME280;12845;52.042;6.838;2023-09-08T05:18:28;-18536.63;;;18.94;100.00
24746;BME280;12845;52.042;6.838;2023-09-08T05:20:53;-18537.44;;;18.97;100.00
24746;BME280;12845;52.042;6.838;2023-09-08T05:23:19;-18536.50;;;18.93;100.00
24746;BME280;12845;52.042;6.838;2023-09-08T05:25:44;-18540.16;;;19.07;100.00
24746;BME280;12845;52.042;6.838;2023-09-08T05:28:10;-18543.56;;;19.20;100.00
24746;BME280;12845;52.042;6.838;2023-09-08T05:30:35;-18545.47;;;19.27;100.00
24746;BME280;12845;52.042;6.838;2023-09-08T05:33:01;-18547.13;;;19.33;100.00
24746;BME280;12845;52.042;6.838;2023-09-08T05:35:26;-18547.78;;;19.36;100.00
24746;BME280;12845;52.042;6.838;2023-09-08T05:37:52;-18553.09;;;19.56;100.00
24746;BME280;12845;52.042;6.838;2023-09-08T05:40:17;-18557.34;;;19.72;100.00
24746;BME280;12845;52.042;6.838;2023-09-08T05:42:44;-18560.34;;;19.83;100.00
24746;BME280;12845;52.042;6.838;2023-09-08T05:45:09;-18562.22;;;19.90;100.00
24746;BME280;12845;52.042;6.838;2023-09-08T05:47:35;-18562.09;;;19.90;100.00
24746;BME280;12845;52.042;6.838;2023-09-08T05:50:01;-18563.19;;;19.94;100.00
24746;BME280;12845;52.042;6.838;2023-09-08T05:52:26;-18564.56;;;19.99;100.00
24746;BME280;12845;52.042;6.838;2023-09-08T05:54:53;-18563.06;;;19.93;100.00
24746;BME280;12845;52.042;6.838;2023-09-08T05:57:18;-18563.59;;;19.95;100.00
24746;BME280;12845;52.042;6.838;2023-09-08T05:59:44;-18566.72;;;20.07;100.00
24746;BME280;12845;52.042;6.838;2023-09-08T06:02:09;-18565.78;;;20.03;100.00
24746;BME280;12845;52.042;6.838;2023-09-08T06:04:35;-18569.44;;;20.17;100.00
24746;BME280;12845;52.042;6.838;2023-09-08T06:07:00;-18574.91;;;20.38;100.00
24746;BME280;12845;52.042;6.838;2023-09-08T06:09:25;-18579.53;;;20.55;100.00
24746;BME280;12845;52.042;6.838;2023-09-08T06:11:51;-18583.19;;;20.69;100.00
24746;BME280;12845;52.042;6.838;2023-09-08T06:14:16;-18585.25;;;20.77;100.00
24746;BME280;12845;52.042;6.838;2023-09-08T06:16:41;-18584.69;;;20.75;100.00
24746;BME280;12845;52.042;6.838;2023-09-08T06:19:07;-18588.38;;;20.88;100.00
24746;BME280;12845;52.042;6.838;2023-09-08T06:21:32;-18591.50;;;21.00;100.00
24746;BME280;12845;52.042;6.838;2023-09-08T06:23:57;-18592.44;;;21.04;100.00
24746;BME280;12845;52.042;6.838;2023-09-08T06:26:23;-18595.31;;;21.14;100.00
24746;BME280;12845;52.042;6.838;2023-09-08T06:28:48;-18598.16;;;21.25;100.00
24746;BME280;12845;52.042;6.838;2023-09-08T06:31:13;-18601.28;;;21.37;100.00
24746;BME280;12845;52.042;6.838;2023-09-08T06:33:39;-18605.22;;;21.52;100.00
24746;BME280;12845;52.042;6.838;2023-09-08T06:36:05;-18607.53;;;21.60;100.00
24746;BME280;12845;52.042;6.838;2023-09-08T06:38:32;-18609.03;;;21.66;100.00
24746;BME280;12845;52.042;6.838;2023-09-08T06:40:57;-18611.88;;;21.77;100.00
24746;BME280;12845;52.042;6.838;2023-09-08T06:43:23;-18615.97;;;21.92;100.00
24746;BME280;12845;52.042;6.838;2023-09-08T06:45:49;-18618.81;;;22.03;100.00
24746;BME280;12845;52.042;6.838;2023-09-08T06:48:15;-18619.38;;;22.05;100.00
24746;BME280;12845;52.042;6.838;2023-09-08T06:50:40;-18620.59;;;22.09;100.00
24746;BME280;12845;52.042;6.838;2023-09-08T06:53:05;-18623.03;;;22.19;100.00
24746;BME280;12845;52.042;6.838;2023-09-08T06:55:31;-18624.38;;;22.24;100.00
24746;BME280;12845;52.042;6.838;2023-09-08T06:57:57;-18628.34;;;22.39;100.00
24746;BME280;12845;52.042;6.838;2023-09-08T07:00:22;-18631.84;;;22.52;100.00
24746;BME280;12845;52.042;6.838;2023-09-08T07:02:48;-18637.97;;;22.75;100.00
24746;BME280;12845;52.042;6.838;2023-09-08T07:05:15;-18640.28;;;22.84;100.00
24746;BME280;12845;52.042;6.838;2023-09-08T07:07:40;-18643.00;;;22.94;100.00
24746;BME280;12845;52.042;6.838;2023-09-08T07:10:06;-18644.63;;;23.00;100.00
24746;BME280;12845;52.042;6.838;2023-09-08T07:12:32;-18650.19;;;23.21;100.00
24746;BME280;12845;52.042;6.838;2023-09-08T07:14:58;-18650.88;;;23.24;100.00
24746;BME280;12845;52.042;6.838;2023-09-08T07:17:25;-18652.09;;;23.28;100.00
24746;BME280;12845;52.042;6.838;2023-09-08T07:19:50;-18657.38;;;23.48;100.00
24746;BME280;12845;52.042;6.838;2023-09-08T07:22:15;-18654.78;;;23.38;100.00
24746;BME280;12845;52.042;6.838;2023-09-08T07:24:41;-18659.13;;;23.55;100.00
24746;BME280;12845;52.042;6.838;2023-09-08T07:27:06;-18661.03;;;23.62;100.00
24746;BME280;12845;52.042;6.838;2023-09-08T07:29:32;-18664.28;;;23.74;100.00
24746;BME280;12845;52.042;6.838;2023-09-08T07:31:58;-18669.03;;;23.92;100.00
24746;BME280;12845;52.042;6.838;2023-09-08T07:34:23;-18672.84;;;24.06;99.66
24746;BME280;12845;52.042;6.838;2023-09-08T07:36:48;-18675.41;;;24.16;99.05
24746;BME280;12845;52.042;6.838;2023-09-08T07:39:14;-18674.59;;;24.13;99.17
24746;BME280;12845;52.042;6.838;2023-09-08T07:41:39;-18681.50;;;24.39;98.78
24746;BME280;12845;52.042;6.838;2023-09-08T07:44:09;-18682.19;;;24.42;97.09
24746;BME280;12845;52.042;6.838;2023-09-08T07:46:34;-18683.00;;;24.45;95.48
24746;BME280;12845;52.042;6.838;2023-09-08T07:48:59;-18691.00;;;24.75;95.75
24746;BME280;12845;52.042;6.838;2023-09-08T07:51:26;-18693.16;;;24.83;92.46
24746;BME280;12845;52.042;6.838;2023-09-08T07:53:53;-18700.47;;;25.11;90.51
24746;BME280;12845;52.042;6.838;2023-09-08T07:56:18;-18701.41;;;25.14;88.41
24746;BME280;12845;52.042;6.838;2023-09-08T07:58:44;-18705.06;;;25.28;86.03
24746;BME280;12845;52.042;6.838;2023-09-08T08:01:09;-18712.38;;;25.56;89.83
24746;BME280;12845;52.042;6.838;2023-09-08T08:03:34;-18712.53;;;25.56;84.06
24746;BME280;12845;52.042;6.838;2023-09-08T08:06:00;-18713.47;;;25.60;79.52
24746;BME280;12845;52.042;6.838;2023-09-08T08:08:26;-18712.66;;;25.57;84.74
24746;BME280;12845;52.042;6.838;2023-09-08T08:10:51;-18712.38;;;25.56;85.51
24746;BME280;12845;52.042;6.838;2023-09-08T08:13:17;-18717.25;;;25.74;80.60
24746;BME280;12845;52.042;6.838;2023-09-08T08:15:44;-18719.00;;;25.81;81.68
24746;BME280;12845;52.042;6.838;2023-09-08T08:18:10;-18725.38;;;26.05;77.89
24746;BME280;12845;52.042;6.838;2023-09-08T08:20:36;-18730.78;;;26.25;77.58
24746;BME280;12845;52.042;6.838;2023-09-08T08:23:02;-18734.03;;;26.38;73.76
24746;BME280;12845;52.042;6.838;2023-09-08T08:25:28;-18736.44;;;26.47;71.63
24746;BME280;12845;52.042;6.838;2023-09-08T08:27:54;-18728.22;;;26.16;74.90
24746;BME280;12845;52.042;6.838;2023-09-08T08:30:21;-18731.03;;;26.26;74.12
24746;BME280;12845;52.042;6.838;2023-09-08T08:32:46;-18734.16;;;26.38;70.30
24746;BME280;12845;52.042;6.838;2023-09-08T08:35:12;-18741.59;;;26.66;72.16
24746;BME280;12845;52.042;6.838;2023-09-08T08:37:40;-18751.06;;;27.02;69.62
24746;BME280;12845;52.042;6.838;2023-09-08T08:40:06;-18747.28;;;26.88;67.48
24746;BME280;12845;52.042;6.838;2023-09-08T08:42:32;-18748.63;;;26.93;63.86
24746;BME280;12845;52.042;6.838;2023-09-08T08:44:59;-18755.09;;;27.17;65.11
24746;BME280;12845;52.042;6.838;2023-09-08T08:47:27;-18754.03;;;27.13;63.48
24746;BME280;12845;52.042;6.838;2023-09-08T08:49:53;-18755.09;;;27.17;63.08
24746;BME280;12845;52.042;6.838;2023-09-08T08:52:19;-18754.84;;;27.16;61.32
24746;BME280;12845;52.042;6.838;2023-09-08T08:54:45;-18763.22;;;27.48;60.36
24746;BME280;12845;52.042;6.838;2023-09-08T08:57:11;-18765.63;;;27.57;60.34
24746;BME280;12845;52.042;6.838;2023-09-08T08:59:38;-18771.16;;;27.78;59.79
24746;BME280;12845;52.042;6.838;2023-09-08T09:02:04;-18768.06;;;27.66;59.68
24746;BME280;12845;52.042;6.838;2023-09-08T09:04:31;-18769.16;;;27.71;61.13
24746;BME280;12845;52.042;6.838;2023-09-08T09:06:57;-18773.75;;;27.88;57.82
24746;BME280;12845;52.042;6.838;2023-09-08T09:09:23;-18778.19;;;28.05;56.18
24746;BME280;12845;52.042;6.838;2023-09-08T09:11:49;-18777.38;;;28.02;58.13
24746;BME280;12845;52.042;6.838;2023-09-08T09:14:15;-18780.75;;;28.15;58.32
24746;BME280;12845;52.042;6.838;2023-09-08T09:16:42;-18780.63;;;28.14;56.77
24746;BME280;12845;52.042;6.838;2023-09-08T09:19:08;-18783.72;;;28.26;56.04
24746;BME280;12845;52.042;6.838;2023-09-08T09:24:16;-18785.06;;;28.31;56.16
24746;BME280;12845;52.042;6.838;2023-09-08T09:26:42;-18786.69;;;28.37;57.65
24746;BME280;12845;52.042;6.838;2023-09-08T09:29:13;-18787.22;;;28.39;56.04
24746;BME280;12845;52.042;6.838;2023-09-08T09:32:11;-18791.53;;;28.55;56.46
24746;BME280;12845;52.042;6.838;2023-09-08T09:34:47;-18792.75;;;28.60;54.69
24746;BME280;12845;52.042;6.838;2023-09-08T09:37:13;-18793.56;;;28.63;55.94
24746;BME280;12845;52.042;6.838;2023-09-08T09:39:39;-18794.66;;;28.67;56.31
24746;BME280;12845;52.042;6.838;2023-09-08T09:42:04;-18792.91;;;28.61;55.38
24746;BME280;12845;52.042;6.838;2023-09-08T09:44:30;-18791.41;;;28.55;56.20
24746;BME280;12845;52.042;6.838;2023-09-08T09:46:55;-18795.59;;;28.71;57.48
24746;BME280;12845;52.042;6.838;2023-09-08T09:49:21;-18803.94;;;29.02;59.10
24746;BME280;12845;52.042;6.838;2023-09-08T09:51:49;-18810.97;;;29.29;55.85
24746;BME280;12845;52.042;6.838;2023-09-08T09:54:16;-18813.66;;;29.39;54.63
24746;BME280;12845;52.042;6.838;2023-09-08T09:56:42;-18813.66;;;29.39;53.67
24746;BME280;12845;52.042;6.838;2023-09-08T09:59:08;-18816.34;;;29.50;54.17
24746;BME280;12845;52.042;6.838;2023-09-08T10:01:35;-18820.25;;;29.64;53.48
24746;BME280;12845;52.042;6.838;2023-09-08T10:04:01;-18823.88;;;29.78;51.74
24746;BME280;12845;52.042;6.838;2023-09-08T10:06:31;-18815.53;;;29.46;52.57
24746;BME280;12845;52.042;6.838;2023-09-08T10:08:57;-18821.47;;;29.69;51.86
24746;BME280;12845;52.042;6.838;2023-09-08T10:11:25;-18820.78;;;29.66;51.49
24746;BME280;12845;52.042;6.838;2023-09-08T10:13:57;-18824.97;;;29.82;51.72
24746;BME280;12845;52.042;6.838;2023-09-08T10:16:26;-18826.16;;;29.87;48.57
24746;BME280;12845;52.042;6.838;2023-09-08T10:18:54;-18829.81;;;30.01;49.67
24746;BME280;12845;52.042;6.838;2023-09-08T10:21:21;-18831.16;;;30.06;49.57
24746;BME280;12845;52.042;6.838;2023-09-08T10:24:01;-18829.00;;;29.98;48.83
24746;BME280;12845;52.042;6.838;2023-09-08T10:26:31;-18828.19;;;29.95;47.30
24746;BME280;12845;52.042;6.838;2023-09-08T10:28:59;-18831.97;;;30.09;48.46
24746;BME280;12845;52.042;6.838;2023-09-08T10:31:26;-18839.09;;;30.36;48.91
24746;BME280;12845;52.042;6.838;2023-09-08T10:33:54;-18838.41;;;30.33;48.24
24746;BME280;12845;52.042;6.838;2023-09-08T10:36:20;-18836.13;;;30.25;48.93
24746;BME280;12845;52.042;6.838;2023-09-08T10:38:45;-18843.25;;;30.52;49.10
24746;BME280;12845;52.042;6.838;2023-09-08T10:43:57;-18851.34;;;30.83;48.81
24746;BME280;12845;52.042;6.838;2023-09-08T10:46:26;-18855.09;;;30.97;47.79
24746;BME280;12845;52.042;6.838;2023-09-08T10:48:53;-18852.81;;;30.88;47.59
24746;BME280;12845;52.042;6.838;2023-09-08T10:51:19;-18849.19;;;30.74;48.48
24746;BME280;12845;52.042;6.838;2023-09-08T10:53:47;-18852.41;;;30.87;49.22
24746;BME280;12845;52.042;6.838;2023-09-08T10:56:16;-18851.88;;;30.85;49.35
24746;BME280;12845;52.042;6.838;2023-09-08T10:58:42;-18853.34;;;30.90;47.53
24746;BME280;12845;52.042;6.838;2023-09-08T11:01:19;-18856.72;;;31.03;49.91
24746;BME280;12845;52.042;6.838;2023-09-08T11:03:48;-18858.19;;;31.09;47.42
24746;BME280;12845;52.042;6.838;2023-09-08T11:06:18;-18862.63;;;31.25;47.74
24746;BME280;12845;52.042;6.838;2023-09-08T11:08:45;-18865.84;;;31.38;46.17
24746;BME280;12845;52.042;6.838;2023-09-08T11:11:12;-18865.84;;;31.38;47.21
24746;BME280;12845;52.042;6.838;2023-09-08T11:13:38;-18866.94;;;31.42;47.18
24746;BME280;12845;52.042;6.838;2023-09-08T11:16:05;-18866.66;;;31.41;46.42
24746;BME280;12845;52.042;6.838;2023-09-08T11:18:31;-18869.59;;;31.52;46.59
24746;BME280;12845;52.042;6.838;2023-09-08T11:20:58;-18864.38;;;31.32;45.39
24746;BME280;12845;52.042;6.838;2023-09-08T11:23:24;-18864.91;;;31.34;44.52
24746;BME280;12845;52.042;6.838;2023-09-08T11:25:50;-18865.31;;;31.36;44.76
24746;BME280;12845;52.042;6.838;2023-09-08T11:28:17;-18865.84;;;31.38;44.61
24746;BME280;12845;52.042;6.838;2023-09-08T11:30:42;-18870.69;;;31.56;44.42
24746;BME280;12845;52.042;6.838;2023-09-08T11:33:18;-18874.19;;;31.69;44.17
24746;BME280;12845;52.042;6.838;2023-09-08T11:35:46;-18874.97;;;31.73;45.89
24746;BME280;12845;52.042;6.838;2023-09-08T11:38:12;-18871.50;;;31.59;44.49
24746;BME280;12845;52.042;6.838;2023-09-08T11:40:38;-18877.81;;;31.83;44.26
24746;BME280;12845;52.042;6.838;2023-09-08T11:43:05;-18879.16;;;31.88;44.36
24746;BME280;12845;52.042;6.838;2023-09-08T11:45:33;-18885.59;;;32.13;46.42
24746;BME280;12845;52.042;6.838;2023-09-08T11:47:58;-18885.72;;;32.13;45.94
24746;BME280;12845;52.042;6.838;2023-09-08T11:50:24;-18886.81;;;32.18;44.58
24746;BME280;12845;52.042;6.838;2023-09-08T11:52:51;-18889.75;;;32.29;44.08
24746;BME280;12845;52.042;6.838;2023-09-08T11:55:18;-18887.06;;;32.19;42.92
24746;BME280;12845;52.042;6.838;2023-09-08T11:57:48;-18884.53;;;32.09;44.10
24746;BME280;12845;52.042;6.838;2023-09-08T12:00:15;-18896.72;;;32.55;43.87
24746;BME280;12845;52.042;6.838;2023-09-08T12:02:41;-18895.13;;;32.49;44.32
24746;BME280;12845;52.042;6.838;2023-09-08T12:05:27;-18900.88;;;32.71;44.93
24746;BME280;12845;52.042;6.838;2023-09-08T12:07:55;-18898.47;;;32.62;43.98
24746;BME280;12845;52.042;6.838;2023-09-08T12:10:22;-18898.34;;;32.62;43.17
24746;BME280;12845;52.042;6.838;2023-09-08T12:12:54;-18906.91;;;32.94;42.11
24746;BME280;12845;52.042;6.838;2023-09-08T12:15:30;-18910.28;;;33.07;42.98
24746;BME280;12845;52.042;6.838;2023-09-08T12:18:00;-18912.56;;;33.16;42.32
24746;BME280;12845;52.042;6.838;2023-09-08T12:20:26;-18905.59;;;32.89;43.78
24746;BME280;12845;52.042;6.838;2023-09-08T12:22:51;-18914.84;;;33.24;43.45
24746;BME280;12845;52.042;6.838;2023-09-08T12:25:17;-18915.09;;;33.25;43.46
24746;BME280;12845;52.042;6.838;2023-09-08T12:27:44;-18926.75;;;33.70;44.23
24746;BME280;12845;52.042;6.838;2023-09-08T12:30:16;-18928.91;;;33.78;41.64
24746;BME280;12845;52.042;6.838;2023-09-08T12:32:42;-18927.56;;;33.73;41.29
24746;BME280;12845;52.042;6.838;2023-09-08T12:35:08;-18930.78;;;33.85;42.38
24746;BME280;12845;52.042;6.838;2023-09-08T12:37:33;-18936.66;;;34.08;43.31
24746;BME280;12845;52.042;6.838;2023-09-08T12:39:59;-18940.28;;;34.22;41.24
24746;BME280;12845;52.042;6.838;2023-09-08T12:42:26;-18940.16;;;34.21;41.78
24746;BME280;12845;52.042;6.838;2023-09-08T12:44:54;-18934.38;;;33.99;42.22
24746;BME280;12845;52.042;6.838;2023-09-08T12:47:20;-18938.53;;;34.15;42.19